createdAt,value
2023-02-15T00:00:38.026Z,34.40
2023-02-15T00:03:05.642Z,34.73
2023-02-15T00:05:33.230Z,33.97
2023-02-15T00:08:00.815Z,33.40
2023-02-15T00:10:28.311Z,36.57
2023-02-15T00:12:55.873Z,36.43
2023-02-15T00:15:23.421Z,37.00
2023-02-15T00:17:50.963Z,38.87
2023-02-15T00:20:18.499Z,33.67
2023-02-15T00:22:46.133Z,33.43
2023-02-15T00:25:13.642Z,39.20
2023-02-15T00:27:41.262Z,32.63
2023-02-15T00:30:09.002Z,37.37
2023-02-15T00:32:36.632Z,36.70
2023-02-15T00:35:04.190Z,35.13
2023-02-15T00:37:31.777Z,37.40
2023-02-15T00:39:59.302Z,37.73
2023-02-15T00:42:26.841Z,41.23
2023-02-15T00:44:54.367Z,35.80
2023-02-15T00:47:21.949Z,37.13
2023-02-15T00:49:49.504Z,41.47
2023-02-15T00:52:17.121Z,36.10
2023-02-15T00:54:44.655Z,37.10
2023-02-15T00:57:12.196Z,40.60
2023-02-15T00:59:39.725Z,42.10
2023-02-15T01:02:07.296Z,37.33
2023-02-15T01:04:34.881Z,39.80
2023-02-15T01:07:02.476Z,40.47
2023-02-15T01:09:29.988Z,37.97
2023-02-15T01:11:57.521Z,38.37
2023-02-15T01:14:25.035Z,40.47
2023-02-15T01:16:52.564Z,37.33
2023-02-15T01:19:20.132Z,38.47
2023-02-15T01:21:47.728Z,43.57
2023-02-15T01:24:15.874Z,43.13
2023-02-15T01:26:43.440Z,42.53
2023-02-15T01:29:10.949Z,39.50
2023-02-15T01:31:38.695Z,41.63
2023-02-15T01:34:06.283Z,42.50
2023-02-15T01:36:35.292Z,37.70
2023-02-15T01:39:02.813Z,38.83
2023-02-15T01:41:30.413Z,41.37
2023-02-15T01:43:59.754Z,46.17
2023-02-15T01:46:30.311Z,46.90
2023-02-15T01:49:01.828Z,39.77
2023-02-15T01:51:31.115Z,41.50
2023-02-15T01:54:01.342Z,44.33
2023-02-15T01:56:31.095Z,46.63
2023-02-15T01:59:00.591Z,42.23
2023-02-15T02:01:29.143Z,46.40
2023-02-15T02:04:09.415Z,40.97
2023-02-15T02:06:38.621Z,47.93
2023-02-15T02:09:06.123Z,42.27
2023-02-15T02:11:34.050Z,44.13
2023-02-15T02:14:01.678Z,41.53
2023-02-15T02:16:48.198Z,46.77
2023-02-15T02:19:18.741Z,48.17
2023-02-15T02:21:46.361Z,44.27
2023-02-15T02:24:32.558Z,42.27
2023-02-15T02:27:09.027Z,44.43
2023-02-15T02:29:36.526Z,47.07
2023-02-15T02:32:04.096Z,45.67
2023-02-15T02:34:34.057Z,42.10
2023-02-15T02:37:09.913Z,46.53
2023-02-15T02:39:58.311Z,45.10
2023-02-15T02:42:25.862Z,48.23
2023-02-15T02:44:58.662Z,41.23
2023-02-15T02:47:26.196Z,49.30
2023-02-15T02:49:54.578Z,51.77
2023-02-15T02:52:37.515Z,48.83
2023-02-15T02:55:07.219Z,50.90
2023-02-15T02:57:36.745Z,44.47
2023-02-15T03:00:06.040Z,44.37
2023-02-15T03:02:36.385Z,48.37
2023-02-15T03:05:06.340Z,47.57
2023-02-15T03:07:35.503Z,49.73
2023-02-15T03:10:05.283Z,48.80
2023-02-15T03:12:34.307Z,50.00
2023-02-15T03:15:07.248Z,45.93
2023-02-15T03:17:36.168Z,48.23
2023-02-15T03:20:08.390Z,50.00
2023-02-15T03:22:38.309Z,51.33
2023-02-15T03:25:12.739Z,47.40
2023-02-15T03:27:43.018Z,46.10
2023-02-15T03:30:11.755Z,44.87
2023-02-15T03:32:40.505Z,49.37
2023-02-15T03:35:08.690Z,48.53
2023-02-15T03:37:44.730Z,47.50
2023-02-15T03:40:24.883Z,42.77
2023-02-15T03:42:55.276Z,47.10
2023-02-15T03:45:28.641Z,45.53
2023-02-15T03:47:57.878Z,47.67
2023-02-15T03:50:30.711Z,49.17
2023-02-15T03:52:59.317Z,49.73
2023-02-15T03:55:27.275Z,47.00
2023-02-15T03:57:54.804Z,49.53
2023-02-15T04:00:26.115Z,46.97
2023-02-15T04:02:53.648Z,47.90
2023-02-15T04:05:21.216Z,46.67
2023-02-15T04:07:48.815Z,50.00
2023-02-15T04:10:16.408Z,45.63
2023-02-15T04:12:44.004Z,41.03
2023-02-15T04:15:13.705Z,52.80
2023-02-15T04:17:41.254Z,44.20
2023-02-15T04:20:09.714Z,49.70
2023-02-15T04:22:37.325Z,48.87
2023-02-15T04:25:04.922Z,47.70
2023-02-15T04:27:32.438Z,45.53
2023-02-15T04:30:00.046Z,54.33
2023-02-15T04:32:27.627Z,49.47
2023-02-15T04:34:55.134Z,51.33
2023-02-15T04:37:22.817Z,52.37
2023-02-15T04:39:50.338Z,46.63
2023-02-15T04:42:17.898Z,49.93
2023-02-15T04:44:45.471Z,52.47
2023-02-15T04:47:13.085Z,49.30
2023-02-15T04:49:40.565Z,49.70
2023-02-15T04:52:08.101Z,42.73
2023-02-15T04:54:35.660Z,51.03
2023-02-15T04:57:03.272Z,48.80
2023-02-15T04:59:30.782Z,47.80
2023-02-15T05:01:58.425Z,45.60
2023-02-15T05:04:25.984Z,42.27
2023-02-15T05:06:53.550Z,49.43
2023-02-15T05:09:21.086Z,48.43
2023-02-15T05:11:48.702Z,45.57
2023-02-15T05:14:16.234Z,43.70
2023-02-15T05:16:43.945Z,45.23
2023-02-15T05:19:11.509Z,48.10
2023-02-15T05:21:39.114Z,49.83
2023-02-15T05:24:06.686Z,51.23
2023-02-15T05:26:34.289Z,47.70
2023-02-15T05:29:01.796Z,49.50
2023-02-15T05:31:29.564Z,45.60
2023-02-15T05:33:57.222Z,43.13
2023-02-15T05:36:24.818Z,46.47
2023-02-15T05:38:52.349Z,47.40
2023-02-15T05:41:19.908Z,55.03
2023-02-15T05:43:47.732Z,42.57
2023-02-15T05:46:15.357Z,49.90
2023-02-15T05:48:42.986Z,47.47
2023-02-15T05:51:11.687Z,51.77
2023-02-15T05:53:39.691Z,51.87
2023-02-15T05:56:08.430Z,54.57
2023-02-15T05:58:37.137Z,49.13
2023-02-15T06:01:15.186Z,50.90
2023-02-15T06:03:43.194Z,51.57
2023-02-15T06:06:11.207Z,45.23
2023-02-15T06:08:39.234Z,44.47
2023-02-15T06:11:07.117Z,46.93
2023-02-15T06:13:38.028Z,45.20
2023-02-15T06:16:06.602Z,45.23
2023-02-15T06:18:34.212Z,45.00
2023-02-15T06:21:01.838Z,50.57
2023-02-15T06:23:29.544Z,47.57
2023-02-15T06:25:57.261Z,49.30
2023-02-15T06:28:24.764Z,47.20
2023-02-15T06:30:52.341Z,40.87
2023-02-15T06:33:19.924Z,51.33
2023-02-15T06:35:47.507Z,47.67
2023-02-15T06:38:15.087Z,49.10
2023-02-15T06:40:42.654Z,46.00
2023-02-15T06:43:10.161Z,51.80
2023-02-15T06:45:37.715Z,51.17
2023-02-15T06:48:05.367Z,47.03
2023-02-15T06:50:33.047Z,41.37
2023-02-15T06:53:00.585Z,48.43
2023-02-15T06:55:28.171Z,48.57
2023-02-15T06:57:55.668Z,47.50
2023-02-15T07:00:23.390Z,45.30
2023-02-15T07:02:57.662Z,44.83
2023-02-15T07:05:25.944Z,42.93
2023-02-15T07:07:53.481Z,41.33
2023-02-15T07:10:21.111Z,48.73
2023-02-15T07:12:48.616Z,40.57
2023-02-15T07:15:17.466Z,45.30
2023-02-15T07:17:45.746Z,46.57
2023-02-15T07:20:20.813Z,40.83
2023-02-15T07:22:48.843Z,43.20
2023-02-15T07:25:16.400Z,40.37
2023-02-15T07:27:43.925Z,44.30
2023-02-15T07:30:12.830Z,43.13
2023-02-15T07:32:40.560Z,38.83
2023-02-15T07:35:08.087Z,42.00
2023-02-15T07:37:35.669Z,41.63
2023-02-15T07:40:03.165Z,41.33
2023-02-15T07:42:32.244Z,37.13
2023-02-15T07:44:59.750Z,40.23
2023-02-15T07:47:28.153Z,39.23
2023-02-15T07:49:55.659Z,36.43
2023-02-15T07:52:23.237Z,39.17
2023-02-15T07:54:50.752Z,39.03
2023-02-15T07:57:18.282Z,41.03
2023-02-15T07:59:45.852Z,39.93
2023-02-15T08:02:13.446Z,37.27
2023-02-15T08:04:41.037Z,34.53
2023-02-15T08:07:08.646Z,37.57
2023-02-15T08:09:36.174Z,35.10
2023-02-15T08:12:03.925Z,38.53
2023-02-15T08:14:31.492Z,34.00
2023-02-15T08:17:00.742Z,34.87
2023-02-15T08:19:29.399Z,34.33
2023-02-15T08:21:56.958Z,34.60
2023-02-15T08:24:25.417Z,38.13
2023-02-15T08:26:53.608Z,38.80
2023-02-15T08:29:22.525Z,36.30
2023-02-15T08:31:50.660Z,38.27
2023-02-15T08:34:19.794Z,35.63
2023-02-15T08:36:47.610Z,31.40
2023-02-15T08:39:16.324Z,27.60
2023-02-15T08:41:45.351Z,28.77
2023-02-15T08:44:13.132Z,30.90
2023-02-15T08:46:42.266Z,31.77
2023-02-15T08:49:10.372Z,27.27
2023-02-15T08:51:39.158Z,27.10
2023-02-15T08:54:08.046Z,32.30
2023-02-15T08:56:37.082Z,28.63
2023-02-15T08:59:05.196Z,30.07
2023-02-15T09:01:34.365Z,30.20
2023-02-15T09:04:03.124Z,27.97
2023-02-15T09:06:30.850Z,25.53
2023-02-15T09:08:58.554Z,27.17
2023-02-15T09:11:27.560Z,31.00
2023-02-15T09:13:56.570Z,29.37
2023-02-15T09:16:25.263Z,28.07
2023-02-15T09:18:53.329Z,24.93
2023-02-15T09:21:24.371Z,30.00
2023-02-15T09:23:53.418Z,24.97
2023-02-15T09:26:22.202Z,27.23
2023-02-15T09:28:52.681Z,29.53
2023-02-15T09:31:21.916Z,24.40
2023-02-15T09:33:50.340Z,26.03
2023-02-15T09:36:23.152Z,25.30
2023-02-15T09:38:57.960Z,26.57
2023-02-15T09:41:45.940Z,30.47
2023-02-15T09:44:32.975Z,25.00
2023-02-15T09:47:28.683Z,27.37
2023-02-15T09:49:59.404Z,23.70
2023-02-15T09:52:39.019Z,25.20
2023-02-15T09:55:12.444Z,28.47
2023-02-15T09:57:40.057Z,25.20
2023-02-15T10:00:32.850Z,25.80
2023-02-15T10:03:19.340Z,25.70
2023-02-15T10:05:55.232Z,25.93
2023-02-15T10:08:32.444Z,25.90
2023-02-15T10:11:00.173Z,24.10
2023-02-15T10:13:45.709Z,26.37
2023-02-15T10:16:16.096Z,24.00
2023-02-15T10:18:48.076Z,25.33
2023-02-15T10:21:31.863Z,23.53
2023-02-15T10:24:19.905Z,21.87
2023-02-15T10:26:48.813Z,24.77
2023-02-15T10:29:36.428Z,23.47
2023-02-15T10:32:04.085Z,27.30
2023-02-15T10:34:34.661Z,22.83
2023-02-15T10:37:21.000Z,24.03
2023-02-15T10:39:48.548Z,22.90
2023-02-15T10:42:19.120Z,20.67
2023-02-15T10:44:46.687Z,21.77
2023-02-15T10:47:20.320Z,23.17
2023-02-15T10:49:53.865Z,18.97
2023-02-15T10:52:33.531Z,21.30
2023-02-15T10:55:10.227Z,21.93
2023-02-15T10:57:43.758Z,23.73
2023-02-15T11:00:11.253Z,23.40
2023-02-15T11:02:57.389Z,22.13
2023-02-15T11:05:24.898Z,21.57
2023-02-15T11:07:54.462Z,23.43
2023-02-15T11:10:31.859Z,22.93
2023-02-15T11:13:02.690Z,22.43
2023-02-15T11:15:42.725Z,24.10
2023-02-15T11:18:14.815Z,23.53
2023-02-15T11:20:57.760Z,23.20
2023-02-15T11:23:26.604Z,22.50
2023-02-15T11:25:56.776Z,24.00
2023-02-15T11:28:28.909Z,21.13
2023-02-15T11:30:57.865Z,24.47
2023-02-15T11:33:30.805Z,18.87
2023-02-15T11:36:10.750Z,23.60
2023-02-15T11:38:38.764Z,20.90
2023-02-15T11:41:12.035Z,21.90
2023-02-15T11:43:52.639Z,21.03
2023-02-15T11:46:20.373Z,21.20
2023-02-15T11:48:47.916Z,24.53
2023-02-15T11:51:17.261Z,21.13
2023-02-15T11:53:45.642Z,24.37
2023-02-15T11:56:20.554Z,21.43
2023-02-15T11:59:14.567Z,21.07
2023-02-15T12:01:46.565Z,18.77
2023-02-15T12:04:17.295Z,22.73
2023-02-15T12:07:05.166Z,22.33
2023-02-15T12:09:49.750Z,22.13
2023-02-15T12:12:25.000Z,19.23
2023-02-15T12:14:53.771Z,21.37
2023-02-15T12:17:30.010Z,21.93
2023-02-15T12:19:59.270Z,21.53
2023-02-15T12:22:28.978Z,23.17
2023-02-15T12:24:58.141Z,26.50
2023-02-15T12:27:27.626Z,23.70
2023-02-15T12:29:58.036Z,20.40
2023-02-15T12:32:26.554Z,19.87
2023-02-15T12:34:56.362Z,19.90
2023-02-15T12:37:28.533Z,25.00
2023-02-15T12:40:00.844Z,20.53
2023-02-15T12:42:29.822Z,20.60
2023-02-15T12:45:01.449Z,22.30
2023-02-15T12:47:29.783Z,20.93
2023-02-15T12:50:12.134Z,22.87
2023-02-15T12:52:40.282Z,22.27
2023-02-15T12:55:19.992Z,22.47
2023-02-15T12:57:47.641Z,20.10
2023-02-15T13:00:21.025Z,23.40
2023-02-15T13:02:51.541Z,22.80
2023-02-15T13:05:21.804Z,21.23
2023-02-15T13:07:55.274Z,23.03
2023-02-15T13:10:37.736Z,23.43
2023-02-15T13:13:11.780Z,20.70
2023-02-15T13:15:42.236Z,20.63
2023-02-15T13:18:14.552Z,20.23
2023-02-15T13:20:42.612Z,20.57
2023-02-15T13:23:18.944Z,20.00
2023-02-15T13:25:47.568Z,20.37
2023-02-15T13:28:16.638Z,20.63
2023-02-15T13:30:46.034Z,21.30
2023-02-15T13:33:23.331Z,22.50
2023-02-15T13:36:06.019Z,26.60
2023-02-15T13:38:39.519Z,21.17
2023-02-15T13:41:11.069Z,21.93
2023-02-15T13:43:45.386Z,19.83
2023-02-15T13:46:19.201Z,19.03
2023-02-15T13:48:52.828Z,19.77
2023-02-15T13:51:39.115Z,21.93
2023-02-15T13:54:18.945Z,27.30
2023-02-15T13:56:53.437Z,21.97
2023-02-15T13:59:30.296Z,20.17
2023-02-15T14:01:57.823Z,21.23
2023-02-15T14:04:25.417Z,21.13
2023-02-15T14:06:53.045Z,21.70
2023-02-15T14:09:46.646Z,18.93
2023-02-15T14:12:20.349Z,22.87
2023-02-15T14:15:00.172Z,19.30
2023-02-15T14:17:40.172Z,22.27
2023-02-15T14:20:13.291Z,21.10
2023-02-15T14:22:43.447Z,19.53
2023-02-15T14:25:14.399Z,22.57
2023-02-15T14:27:41.944Z,19.87
2023-02-15T14:30:18.359Z,18.77
2023-02-15T14:32:56.576Z,19.20
2023-02-15T14:35:26.242Z,23.27
2023-02-15T14:38:00.539Z,19.87
2023-02-15T14:40:39.995Z,23.77
2023-02-15T14:43:17.371Z,24.40
2023-02-15T14:45:47.877Z,24.03
2023-02-15T14:48:22.348Z,19.73
2023-02-15T14:50:49.965Z,22.23
2023-02-15T14:53:18.884Z,25.27
2023-02-15T14:55:46.402Z,22.57
2023-02-15T14:58:14.956Z,21.77
2023-02-15T15:00:43.305Z,20.97
2023-02-15T15:03:29.177Z,22.13
2023-02-15T15:06:00.616Z,18.63
2023-02-15T15:08:49.176Z,23.80
2023-02-15T15:11:42.884Z,18.43
2023-02-15T15:14:12.031Z,19.27
2023-02-15T15:16:39.609Z,19.23
2023-02-15T15:19:11.655Z,23.57
2023-02-15T15:21:48.400Z,19.50
2023-02-15T15:24:34.695Z,21.37
2023-02-15T15:27:20.908Z,17.70
2023-02-15T15:29:48.438Z,18.53
2023-02-15T15:32:20.946Z,21.20
2023-02-15T15:34:57.882Z,18.30
2023-02-15T15:37:34.972Z,19.60
2023-02-15T15:40:08.695Z,18.90
2023-02-15T15:42:39.022Z,19.60
2023-02-15T15:45:29.930Z,19.20
2023-02-15T15:48:16.183Z,21.23
2023-02-15T15:50:44.048Z,20.17
2023-02-15T15:53:19.992Z,18.63
2023-02-15T15:55:48.843Z,22.40
2023-02-15T15:58:18.279Z,21.20
2023-02-15T16:00:48.900Z,19.27
2023-02-15T16:03:22.266Z,20.30
2023-02-15T16:05:49.961Z,21.67
2023-02-15T16:08:26.883Z,19.93
2023-02-15T16:10:54.457Z,20.57
2023-02-15T16:13:22.059Z,21.57
2023-02-15T16:15:51.461Z,21.77
2023-02-15T16:18:19.835Z,20.37
2023-02-15T16:20:52.142Z,21.33
2023-02-15T16:23:37.936Z,22.80
2023-02-15T16:26:24.387Z,22.13
2023-02-15T16:28:52.432Z,21.80
2023-02-15T16:31:20.701Z,21.70
2023-02-15T16:33:48.322Z,20.37
2023-02-15T16:36:26.233Z,19.73
2023-02-15T16:38:53.777Z,23.70
2023-02-15T16:41:25.318Z,19.60
2023-02-15T16:43:53.703Z,18.90
2023-02-15T16:46:25.402Z,21.80
2023-02-15T16:48:54.020Z,20.80
2023-02-15T16:51:23.494Z,20.07
2023-02-15T16:53:51.398Z,22.77
2023-02-15T16:56:24.182Z,24.50
2023-02-15T16:58:52.350Z,21.40
2023-02-15T17:01:22.004Z,24.50
2023-02-15T17:03:50.262Z,21.40
2023-02-15T17:06:25.419Z,19.80
2023-02-15T17:08:53.037Z,21.47
2023-02-15T17:11:20.572Z,19.93
2023-02-15T17:14:00.521Z,19.43
2023-02-15T17:16:29.593Z,19.87
2023-02-15T17:18:57.192Z,19.50
2023-02-15T17:21:27.037Z,23.67
2023-02-15T17:23:58.741Z,22.90
2023-02-15T17:26:28.494Z,18.23
2023-02-15T17:28:58.080Z,22.53
2023-02-15T17:31:27.178Z,22.80
2023-02-15T17:33:55.049Z,24.00
2023-02-15T17:36:23.824Z,22.43
2023-02-15T17:39:00.585Z,21.80
2023-02-15T17:41:32.282Z,21.77
2023-02-15T17:43:59.855Z,27.83
2023-02-15T17:46:28.877Z,20.57
2023-02-15T17:48:56.678Z,18.33
2023-02-15T17:51:24.370Z,25.27
2023-02-15T17:53:52.243Z,21.00
2023-02-15T17:56:19.781Z,19.30
2023-02-15T17:58:47.420Z,20.97
2023-02-15T18:01:18.434Z,24.60
2023-02-15T18:03:48.088Z,22.07
2023-02-15T18:06:16.185Z,18.70
2023-02-15T18:08:44.701Z,23.33
2023-02-15T18:11:12.398Z,17.27
2023-02-15T18:13:40.038Z,21.33
2023-02-15T18:16:12.772Z,21.83
2023-02-15T18:18:40.500Z,19.00
2023-02-15T18:21:12.279Z,22.67
2023-02-15T18:23:40.674Z,22.03
2023-02-15T18:26:11.234Z,22.60
2023-02-15T18:28:39.213Z,19.87
2023-02-15T18:31:07.448Z,20.67
2023-02-15T18:33:40.322Z,18.80
2023-02-15T18:36:08.984Z,21.80
2023-02-15T18:38:36.575Z,20.60
2023-02-15T18:41:05.482Z,18.77
2023-02-15T18:43:33.417Z,23.13
2023-02-15T18:46:01.408Z,20.27
2023-02-15T18:48:29.555Z,39.13
2023-02-15T18:50:57.929Z,18.97
2023-02-15T18:53:26.365Z,23.97
2023-02-15T18:55:54.599Z,23.47
2023-02-15T18:58:23.887Z,22.47
2023-02-15T19:00:51.694Z,22.37
2023-02-15T19:03:22.759Z,20.53
2023-02-15T19:05:50.352Z,22.00
2023-02-15T19:08:19.473Z,19.97
2023-02-15T19:10:47.144Z,20.70
2023-02-15T19:13:15.041Z,22.20
2023-02-15T19:15:42.850Z,21.47
2023-02-15T19:18:10.745Z,23.87
2023-02-15T19:20:43.801Z,21.63
2023-02-15T19:23:29.723Z,21.37
2023-02-15T19:25:57.529Z,24.63
2023-02-15T19:28:30.869Z,21.20
2023-02-15T19:30:58.872Z,20.60
2023-02-15T19:33:26.509Z,21.10
2023-02-15T19:35:54.633Z,22.57
2023-02-15T19:38:26.870Z,24.87
2023-02-15T19:40:57.321Z,21.10
2023-02-15T19:43:26.408Z,20.27
2023-02-15T19:45:54.398Z,23.77
2023-02-15T19:48:22.047Z,20.53
2023-02-15T19:50:50.091Z,24.97
2023-02-15T19:53:22.620Z,24.73
2023-02-15T19:55:50.853Z,22.90
2023-02-15T19:58:18.715Z,20.43
2023-02-15T20:00:47.755Z,19.60
2023-02-15T20:03:15.631Z,23.87
2023-02-15T20:05:43.778Z,20.90
2023-02-15T20:08:21.638Z,22.13
2023-02-15T20:10:49.765Z,22.47
2023-02-15T20:13:17.969Z,20.03
2023-02-15T20:15:46.358Z,23.83
2023-02-15T20:18:14.175Z,22.70
2023-02-15T20:20:46.012Z,22.37
2023-02-15T20:23:18.302Z,24.37
2023-02-15T20:25:46.044Z,22.30
2023-02-15T20:28:17.755Z,26.60
2023-02-15T20:30:45.608Z,25.10
2023-02-15T20:33:13.559Z,22.33
2023-02-15T20:35:41.599Z,24.57
2023-02-15T20:38:16.270Z,23.57
2023-02-15T20:40:43.925Z,23.93
2023-02-15T20:43:15.487Z,23.47
2023-02-15T20:45:43.089Z,26.23
2023-02-15T20:48:10.636Z,22.93
2023-02-15T20:50:38.267Z,21.70
2023-02-15T20:53:09.897Z,21.83
2023-02-15T20:55:37.578Z,24.03
2023-02-15T20:58:12.191Z,21.80
2023-02-15T21:00:39.970Z,22.83
2023-02-15T21:03:11.708Z,24.73
2023-02-15T21:05:39.453Z,23.53
2023-02-15T21:08:13.547Z,20.20
2023-02-15T21:10:41.753Z,20.67
2023-02-15T21:13:15.950Z,24.30
2023-02-15T21:15:43.677Z,23.90
2023-02-15T21:18:16.207Z,22.00
2023-02-15T21:20:45.985Z,25.63
2023-02-15T21:23:15.070Z,21.70
2023-02-15T21:25:44.477Z,22.17
2023-02-15T21:28:20.116Z,19.70
2023-02-15T21:30:48.799Z,22.90
2023-02-15T21:33:16.618Z,21.70
2023-02-15T21:35:45.270Z,24.03
2023-02-15T21:38:16.726Z,24.50
2023-02-15T21:40:45.076Z,20.60
2023-02-15T21:43:16.876Z,22.53
2023-02-15T21:45:44.773Z,25.07
2023-02-15T21:48:12.257Z,25.27
2023-02-15T21:50:40.115Z,24.13
2023-02-15T21:53:10.178Z,27.50
2023-02-15T21:55:37.833Z,27.67
2023-02-15T21:58:05.768Z,26.33
2023-02-15T22:00:33.451Z,24.73
2023-02-15T22:03:01.298Z,23.37
2023-02-15T22:05:30.160Z,24.17
2023-02-15T22:07:58.065Z,26.83
2023-02-15T22:10:30.373Z,25.57
2023-02-15T22:12:59.697Z,27.13
2023-02-15T22:15:29.685Z,26.50
2023-02-15T22:17:57.303Z,26.67
2023-02-15T22:20:25.160Z,32.27
2023-02-15T22:22:52.970Z,26.07
2023-02-15T22:25:22.645Z,25.33
2023-02-15T22:27:50.813Z,27.23
2023-02-15T22:30:24.243Z,26.83
2023-02-15T22:32:51.902Z,25.03
2023-02-15T22:35:24.314Z,30.87
2023-02-15T22:37:52.007Z,25.73
2023-02-15T22:40:20.174Z,28.00
2023-02-15T22:42:49.093Z,27.23
2023-02-15T22:45:18.032Z,25.90
2023-02-15T22:47:46.511Z,23.23
2023-02-15T22:50:33.265Z,24.47
2023-02-15T22:53:01.187Z,26.40
2023-02-15T22:55:30.093Z,24.37
2023-02-15T22:57:58.272Z,26.17
2023-02-15T23:00:27.746Z,27.37
2023-02-15T23:02:55.684Z,28.30
2023-02-15T23:05:24.902Z,28.83
2023-02-15T23:07:52.683Z,27.33
2023-02-15T23:10:21.314Z,23.83
2023-02-15T23:12:49.982Z,28.67
2023-02-15T23:15:17.575Z,28.73
2023-02-15T23:17:45.124Z,28.37
2023-02-15T23:20:15.980Z,26.43
2023-02-15T23:22:44.212Z,27.93
2023-02-15T23:25:12.221Z,30.93
2023-02-15T23:27:39.896Z,29.97
2023-02-15T23:30:12.888Z,29.90
2023-02-15T23:32:40.864Z,27.93
2023-02-15T23:35:18.517Z,29.50
2023-02-15T23:37:46.400Z,28.33
2023-02-15T23:40:17.534Z,29.03
2023-02-15T23:42:45.114Z,23.60
2023-02-15T23:45:33.021Z,30.87
2023-02-15T23:48:00.624Z,28.90
2023-02-15T23:50:29.649Z,25.67
2023-02-15T23:52:57.546Z,29.63
2023-02-15T23:55:28.149Z,26.33
2023-02-15T23:57:55.745Z,26.07
